Time;durP1;ratioP1;P1;durP2;ratioP2;P2;SDS_P1;SDS_P2;PMS_P1;PMS_P2;Temp;Humidity;BMP_temperature;BMP_pressure;BME280_temperature;BME280_humidity;BME280_pressure;Samples;Min_cycle;Max_cycle;Signal;HPM_P1;HPM_P2
2022/10/02 00:01:36;;;;;;;3.08;1.38;;;12.10;99.90;;;;;;5071387;28;20204;-67
2022/10/02 00:04:06;;;;;;;2.08;1.42;;;12.10;99.90;;;;;;5071759;28;20228;-67
2022/10/02 00:06:41;;;;;;;2.00;1.30;;;12.10;99.90;;;;;;5071447;28;20243;-67
2022/10/02 00:09:17;;;;;;;1.20;1.10;;;12.10;99.90;;;;;;5070641;28;20212;-67
2022/10/02 00:11:47;;;;;;;2.05;1.13;;;12.10;99.90;;;;;;5071138;28;20201;-68
2022/10/02 00:14:17;;;;;;;2.22;1.20;;;12.10;99.90;;;;;;5070968;28;20232;-68
2022/10/02 00:16:46;;;;;;;1.75;1.10;;;12.10;99.90;;;;;;5071181;28;20201;-68
2022/10/02 00:19:16;;;;;;;2.38;1.30;;;12.20;99.90;;;;;;5070837;28;20205;-67
2022/10/02 00:21:57;;;;;;;2.47;1.55;;;12.10;99.90;;;;;;5070538;28;20661;-67
2022/10/02 00:24:32;;;;;;;2.47;1.50;;;12.10;99.90;;;;;;5071189;28;20224;-67
2022/10/02 00:27:03;;;;;;;1.55;1.20;;;12.10;99.90;;;;;;5071130;28;20232;-66
2022/10/02 00:29:44;;;;;;;1.95;1.20;;;12.10;99.90;;;;;;5071390;28;20205;-67
2022/10/02 00:32:20;;;;;;;1.83;1.60;;;12.20;99.90;;;;;;5070171;28;20212;-68
2022/10/02 00:35:16;;;;;;;1.40;1.30;;;12.20;99.90;;;;;;5070844;28;20224;-68
2022/10/02 00:37:51;;;;;;;1.60;1.20;;;12.20;99.90;;;;;;5071376;28;20205;-67
2022/10/02 00:40:36;;;;;;;1.45;1.25;;;12.10;99.90;;;;;;5071277;28;20211;-68
2022/10/02 00:43:23;;;;;;;4.32;1.75;;;12.10;99.90;;;;;;5056622;28;20796;-67
2022/10/02 00:46:13;;;;;;;2.40;1.40;;;12.10;99.90;;;;;;5050212;28;20190;-67
2022/10/02 00:48:59;;;;;;;2.08;1.50;;;12.10;99.90;;;;;;5050626;28;20209;-68
2022/10/02 00:51:40;;;;;;;2.95;1.73;;;12.10;99.90;;;;;;5195976;22;20295;-70
2022/10/02 00:54:20;;;;;;;1.75;1.30;;;12.20;99.90;;;;;;5049259;28;20217;-70
2022/10/02 00:56:55;;;;;;;2.67;1.50;;;12.10;99.90;;;;;;5049145;28;20594;-70
2022/10/02 00:59:39;;;;;;;1.90;1.20;;;12.10;99.90;;;;;;5049911;28;20201;-70
2022/10/02 01:02:31;;;;;;;1.80;1.13;;;12.10;99.90;;;;;;5049710;28;20205;-70
2022/10/02 01:05:00;;;;;;;2.85;1.50;;;12.10;99.90;;;;;;5049745;28;20221;-69
2022/10/02 01:07:27;;;;;;;1.77;1.00;;;12.10;99.90;;;;;;5050463;28;20229;-70
2022/10/02 01:09:54;;;;;;;7.13;1.67;;;12.20;99.90;;;;;;5050326;28;20206;-69
2022/10/02 01:12:23;;;;;;;2.42;1.30;;;12.20;99.90;;;;;;5050275;28;20209;-70
2022/10/02 01:14:50;;;;;;;1.58;1.15;;;12.20;99.90;;;;;;5050873;28;20221;-70
2022/10/02 01:17:24;;;;;;;1.48;1.35;;;12.20;99.90;;;;;;5050149;28;20205;-69
2022/10/02 01:19:51;;;;;;;4.50;1.60;;;12.20;99.90;;;;;;5050733;28;20618;-70
2022/10/02 01:22:26;;;;;;;2.72;1.35;;;12.20;99.90;;;;;;5049634;28;20201;-70
2022/10/02 01:24:55;;;;;;;1.92;1.40;;;12.20;99.90;;;;;;5049983;28;20716;-70
2022/10/02 01:27:23;;;;;;;1.55;1.33;;;12.20;99.90;;;;;;5050603;28;20228;-69
2022/10/02 01:29:55;;;;;;;2.38;1.50;;;12.30;99.90;;;;;;5050907;28;20245;-70
2022/10/02 01:32:24;;;;;;;1.17;1.05;;;12.30;99.90;;;;;;5050552;28;20205;-70
2022/10/02 01:34:52;;;;;;;1.42;1.17;;;12.20;99.90;;;;;;5050342;28;20221;-70
2022/10/02 01:37:19;;;;;;;6.95;1.67;;;12.20;99.90;;;;;;5050624;28;20800;-70
2022/10/02 01:39:45;;;;;;;3.77;1.37;;;12.20;99.90;;;;;;5050859;28;20228;-70
2022/10/02 01:42:14;;;;;;;3.05;1.77;;;12.20;99.90;;;;;;5049988;28;20464;-69
2022/10/02 01:44:41;;;;;;;2.00;1.40;;;12.30;99.90;;;;;;5050822;28;20229;-70
2022/10/02 01:47:11;;;;;;;1.52;1.38;;;12.30;99.90;;;;;;5050273;28;20221;-69
2022/10/02 01:50:02;;;;;;;1.80;1.30;;;12.20;99.90;;;;;;5050790;28;20201;-70
2022/10/02 01:52:42;;;;;;;4.40;1.50;;;12.30;99.90;;;;;;5049983;28;20708;-69
2022/10/02 01:55:24;;;;;;;2.20;1.10;;;12.30;99.90;;;;;;5050413;28;20225;-70
2022/10/02 01:58:18;;;;;;;2.08;1.48;;;12.30;99.90;;;;;;5050643;28;20206;-69
2022/10/02 02:00:59;;;;;;;1.40;1.30;;;12.30;99.90;;;;;;5050628;28;20206;-70
2022/10/02 02:03:37;;;;;;;1.63;1.50;;;12.40;99.90;;;;;;5049946;28;20226;-69
2022/10/02 02:06:11;;;;;;;2.20;1.25;;;12.40;99.90;;;;;;5050377;28;20202;-69
2022/10/02 02:08:48;;;;;;;5.00;1.70;;;12.40;99.90;;;;;;5050344;28;20595;-69
2022/10/02 02:11:17;;;;;;;6.50;1.70;;;12.30;99.90;;;;;;5049893;28;20209;-70
2022/10/02 02:13:49;;;;;;;2.75;1.25;;;12.30;99.90;;;;;;5050173;28;20229;-69
2022/10/02 02:16:23;;;;;;;3.35;1.90;;;12.30;99.90;;;;;;5050428;28;20205;-70
2022/10/02 02:18:53;;;;;;;3.05;1.48;;;12.30;99.90;;;;;;5050556;28;20217;-70
2022/10/02 02:21:27;;;;;;;3.73;1.63;;;12.30;99.90;;;;;;5049873;28;20210;-69
2022/10/02 02:23:55;;;;;;;2.65;1.60;;;12.40;99.90;;;;;;5050414;28;20480;-70
2022/10/02 02:26:25;;;;;;;1.20;1.10;;;12.30;99.90;;;;;;5050131;28;20210;-70
2022/10/02 02:28:59;;;;;;;3.55;1.40;;;12.30;99.90;;;;;;5050446;28;20464;-70
2022/10/02 02:31:30;;;;;;;1.33;1.00;;;12.30;99.90;;;;;;5049834;28;20201;-70
2022/10/02 02:34:00;;;;;;;2.35;1.40;;;12.40;99.90;;;;;;5050240;28;20697;-70
2022/10/02 02:36:32;;;;;;;2.83;1.63;;;12.30;99.90;;;;;;5050443;28;20205;-70
2022/10/02 02:39:04;;;;;;;8.13;1.77;;;12.40;99.90;;;;;;5050169;28;20197;-70
2022/10/02 02:41:38;;;;;;;1.70;1.45;;;12.40;99.90;;;;;;5049873;28;20205;-70
2022/10/02 02:44:12;;;;;;;4.10;1.95;;;12.40;99.90;;;;;;5049794;28;20226;-70
2022/10/02 02:49:26;;;;;;;1.20;1.10;;;12.40;99.90;;;;;;5052883;28;20454;-70
2022/10/02 02:51:55;;;;;;;1.43;1.30;;;12.40;99.90;;;;;;5053360;28;20304;-69
2022/10/02 02:54:27;;;;;;;2.33;1.70;;;12.40;99.90;;;;;;5053580;28;20987;-69
2022/10/02 02:56:57;;;;;;;3.43;1.50;;;12.40;99.90;;;;;;5053834;28;20271;-69
2022/10/02 02:59:28;;;;;;;1.40;1.30;;;12.40;99.90;;;;;;5053999;28;20495;-70
2022/10/02 03:01:55;;;;;;;4.80;1.60;;;12.50;99.90;;;;;;5053290;28;20841;-69
2022/10/02 03:04:22;;;;;;;2.43;1.20;;;12.50;99.90;;;;;;5053777;28;20475;-69
2022/10/02 03:06:52;;;;;;;5.40;1.80;;;12.50;99.90;;;;;;5053587;28;20459;-70
2022/10/02 03:09:20;;;;;;;3.50;1.80;;;12.50;99.90;;;;;;5053525;28;20198;-69
2022/10/02 03:11:53;;;;;;;7.38;1.50;;;12.40;99.90;;;;;;5052894;28;20201;-69
2022/10/02 03:14:40;;;;;;;3.15;1.50;;;12.50;99.90;;;;;;5053437;28;20701;-69
2022/10/02 03:17:18;;;;;;;2.33;1.40;;;12.40;99.90;;;;;;5053230;28;20201;-69
2022/10/02 03:19:49;;;;;;;2.87;1.20;;;12.50;99.90;;;;;;5053571;28;20460;-70
2022/10/02 03:22:25;;;;;;;1.67;1.43;;;12.40;99.90;;;;;;5052629;28;20467;-69
2022/10/02 03:25:01;;;;;;;2.60;1.33;;;12.40;99.90;;;;;;5053350;28;20519;-69
2022/10/02 03:27:34;;;;;;;2.40;1.55;;;12.40;99.90;;;;;;5053322;28;20490;-69
2022/10/02 03:30:05;;;;;;;2.03;1.30;;;12.40;99.90;;;;;;5052944;28;20208;-69
2022/10/02 03:32:34;;;;;;;1.33;1.05;;;12.40;99.90;;;;;;5052700;28;20460;-69
2022/10/02 03:35:01;;;;;;;5.88;1.58;;;12.40;99.90;;;;;;5052800;28;20600;-69
2022/10/02 03:37:29;;;;;;;6.67;1.73;;;12.40;99.90;;;;;;5053299;28;20194;-69
2022/10/02 03:39:58;;;;;;;4.75;1.27;;;12.40;99.90;;;;;;5052724;28;20466;-69
2022/10/02 03:42:27;;;;;;;1.30;1.07;;;12.40;99.90;;;;;;5052615;28;20202;-69
2022/10/02 03:44:53;;;;;;;2.50;1.20;;;12.40;99.90;;;;;;5052944;28;20480;-69
2022/10/02 03:47:22;;;;;;;4.82;1.58;;;12.40;99.90;;;;;;5052687;28;20483;-69
2022/10/02 03:49:49;;;;;;;4.70;1.60;;;12.40;99.90;;;;;;5053031;28;20607;-69
2022/10/02 03:52:17;;;;;;;3.00;1.57;;;12.40;99.90;;;;;;5051860;28;20521;-69
2022/10/02 03:54:45;;;;;;;3.17;1.40;;;12.40;99.90;;;;;;5052780;28;20480;-69
2022/10/02 03:57:17;;;;;;;1.92;1.20;;;12.40;99.90;;;;;;5052666;28;20206;-69
2022/10/02 03:59:50;;;;;;;5.38;1.92;;;12.40;99.90;;;;;;5052457;28;20212;-68
2022/10/02 04:02:26;;;;;;;3.27;1.33;;;12.40;99.90;;;;;;5051864;28;20205;-69
2022/10/02 04:04:59;;;;;;;2.55;1.83;;;12.40;99.90;;;;;;5052620;28;20486;-69
2022/10/02 04:07:32;;;;;;;3.67;1.40;;;12.40;99.90;;;;;;5052698;28;20225;-68
2022/10/02 04:10:14;;;;;;;2.67;1.30;;;12.40;99.90;;;;;;5052176;28;20579;-68
2022/10/02 04:12:44;;;;;;;3.37;1.43;;;12.40;99.90;;;;;;5052087;28;20206;-69
2022/10/02 04:15:18;;;;;;;1.83;1.23;;;12.40;99.90;;;;;;5052067;28;20495;-68
2022/10/02 04:17:50;;;;;;;3.43;1.13;;;12.40;99.90;;;;;;5052497;28;20456;-69
2022/10/02 04:20:21;;;;;;;1.90;1.57;;;12.40;99.90;;;;;;5052051;28;21205;-69
2022/10/02 04:22:52;;;;;;;2.35;1.10;;;12.40;99.90;;;;;;5051785;28;20474;-68
2022/10/02 04:25:22;;;;;;;4.10;1.87;;;12.40;99.90;;;;;;5052234;28;20235;-69
2022/10/02 04:27:54;;;;;;;3.15;1.73;;;12.40;99.90;;;;;;5052258;28;20507;-69
2022/10/02 04:30:22;;;;;;;1.43;1.20;;;12.40;99.90;;;;;;5052293;28;20237;-69
2022/10/02 04:32:51;;;;;;;2.13;1.38;;;12.40;99.90;;;;;;5051703;28;20496;-69
2022/10/02 04:35:25;;;;;;;2.95;1.40;;;12.40;99.90;;;;;;5051873;28;20220;-69
2022/10/02 04:38:06;;;;;;;1.90;1.50;;;12.40;99.90;;;;;;5052037;28;20244;-68
2022/10/02 04:40:50;;;;;;;1.70;1.17;;;12.40;99.90;;;;;;5052221;28;20677;-69
2022/10/02 04:43:30;;;;;;;1.83;1.30;;;12.40;99.90;;;;;;5050995;28;22572;-69
2022/10/02 04:46:08;;;;;;;2.10;1.50;;;12.40;99.90;;;;;;5051918;28;20198;-69
2022/10/02 04:49:05;;;;;;;2.40;1.67;;;12.40;99.90;;;;;;5051725;28;20222;-69
2022/10/02 04:51:45;;;;;;;1.20;1.10;;;12.40;99.90;;;;;;5044061;28;20209;-68
2022/10/02 04:54:39;;;;;;;3.00;1.58;;;12.40;99.90;;;;;;5051072;28;20480;-69
2022/10/02 04:57:21;;;;;;;4.20;1.15;;;12.30;99.90;;;;;;5048277;28;20201;-69
2022/10/02 05:00:02;;;;;;;2.53;1.30;;;12.30;99.90;;;;;;5051609;28;20210;-69
2022/10/02 05:02:41;;;;;;;2.22;1.30;;;12.30;99.90;;;;;;5050969;28;20201;-69
2022/10/02 05:05:21;;;;;;;1.20;1.10;;;12.30;99.90;;;;;;5051044;28;20229;-69
2022/10/02 05:10:44;;;;;;;4.85;1.80;;;12.30;99.90;;;;;;5029151;28;20225;-69
2022/10/02 05:13:25;;;;;;;3.33;3.05;;;12.30;99.90;;;;;;5030725;28;20213;-69
2022/10/02 05:16:08;;;;;;;1.95;1.30;;;12.30;99.90;;;;;;5031283;28;20198;-69
2022/10/02 05:19:04;;;;;;;1.33;1.05;;;12.20;99.90;;;;;;5031074;28;20199;-70
2022/10/02 05:21:56;;;;;;;1.65;1.20;;;12.30;99.90;;;;;;5027372;28;20581;-69
2022/10/02 05:24:40;;;;;;;1.70;1.15;;;12.30;99.90;;;;;;5031027;28;20222;-69
2022/10/02 05:27:22;;;;;;;1.23;1.10;;;12.20;99.90;;;;;;5031243;28;20202;-69
2022/10/02 05:30:08;;;;;;;1.63;1.42;;;12.20;99.90;;;;;;5030869;28;20206;-69
2022/10/02 05:33:02;;;;;;;1.10;1.00;;;12.20;99.90;;;;;;5030648;28;20202;-69
2022/10/02 05:35:48;;;;;;;3.63;1.50;;;12.20;99.90;;;;;;5008115;28;20198;-69
2022/10/02 05:38:27;;;;;;;1.40;1.30;;;12.20;99.90;;;;;;5031043;28;20202;-68
2022/10/02 05:41:02;;;;;;;1.40;1.30;;;12.20;99.90;;;;;;5030602;28;20611;-69
2022/10/02 05:43:35;;;;;;;1.20;1.10;;;12.20;99.90;;;;;;5030490;28;20222;-69
2022/10/02 05:46:08;;;;;;;2.80;1.20;;;12.20;99.90;;;;;;5030613;28;20210;-69
2022/10/02 05:48:39;;;;;;;2.28;1.42;;;12.20;99.90;;;;;;5030686;28;20223;-69
2022/10/02 05:51:12;;;;;;;1.60;1.20;;;12.20;99.90;;;;;;5030777;28;20225;-67
2022/10/02 05:53:45;;;;;;;1.35;1.17;;;12.20;99.90;;;;;;5030441;28;20280;-69
2022/10/02 05:56:17;;;;;;;1.70;1.45;;;12.30;99.90;;;;;;5030749;28;20203;-69
2022/10/02 05:58:51;;;;;;;3.35;1.40;;;12.30;99.90;;;;;;5030503;28;20199;-69
2022/10/02 06:01:25;;;;;;;2.03;1.55;;;12.30;99.90;;;;;;5030266;28;20207;-69
2022/10/02 06:04:00;;;;;;;2.42;1.30;;;12.30;99.90;;;;;;5030219;28;20221;-69
2022/10/02 06:06:32;;;;;;;1.75;1.25;;;12.20;99.90;;;;;;5030785;28;20625;-69
2022/10/02 06:09:05;;;;;;;1.67;0.98;;;12.30;99.90;;;;;;5030353;28;20229;-69
2022/10/02 06:11:35;;;;;;;1.38;1.25;;;12.20;99.90;;;;;;5030075;28;20207;-69
2022/10/02 06:14:09;;;;;;;2.88;1.48;;;12.20;99.90;;;;;;5030243;28;20457;-69
2022/10/02 06:16:41;;;;;;;2.42;1.90;;;12.20;99.90;;;;;;5030214;28;20270;-68
2022/10/02 06:19:12;;;;;;;3.65;1.60;;;12.20;99.90;;;;;;5029202;28;20509;-69
2022/10/02 06:21:47;;;;;;;2.72;1.63;;;12.20;99.90;;;;;;5031527;28;20239;-69
2022/10/02 06:24:20;;;;;;;2.28;1.30;;;12.20;99.90;;;;;;5034874;28;20530;-69
2022/10/02 06:26:53;;;;;;;2.17;1.60;;;12.20;99.90;;;;;;5034512;28;20213;-69
2022/10/02 06:29:25;;;;;;;2.00;1.30;;;12.30;99.90;;;;;;5034740;28;20236;-69
2022/10/02 06:32:01;;;;;;;5.15;2.22;;;12.30;99.90;;;;;;5034417;28;20229;-68
2022/10/02 06:34:28;;;;;;;3.58;1.50;;;12.30;99.90;;;;;;5034449;28;20222;-69
2022/10/02 06:37:21;;;;;;;2.87;1.40;;;12.30;99.90;;;;;;5034375;28;20202;-68
2022/10/02 06:40:02;;;;;;;1.70;1.45;;;12.40;99.90;;;;;;5006951;28;20460;-69
2022/10/02 06:42:41;;;;;;;1.50;1.30;;;12.30;99.90;;;;;;5033855;28;20202;-69
2022/10/02 06:45:17;;;;;;;1.20;1.10;;;12.30;99.90;;;;;;5034355;28;20580;-69
2022/10/02 06:48:01;;;;;;;2.58;1.42;;;12.30;99.90;;;;;;5034189;28;20337;-68
2022/10/02 06:50:41;;;;;;;2.30;1.40;;;12.40;99.90;;;;;;5033961;28;20592;-68
2022/10/02 06:53:21;;;;;;;1.60;1.25;;;12.40;99.90;;;;;;5033591;28;20237;-69
2022/10/02 06:56:00;;;;;;;1.83;1.48;;;12.40;99.90;;;;;;5033788;28;20206;-69
2022/10/02 06:58:50;;;;;;;2.03;1.50;;;12.50;99.90;;;;;;5034225;28;20198;-68
2022/10/02 07:01:27;;;;;;;1.33;1.13;;;12.50;99.90;;;;;;5033560;28;20202;-68
2022/10/02 07:04:24;;;;;;;2.20;1.50;;;12.50;99.90;;;;;;5033818;28;20225;-69
2022/10/02 07:07:03;;;;;;;1.50;1.10;;;12.60;99.90;;;;;;5034024;28;20207;-68
2022/10/02 07:10:09;;;;;;;2.08;1.50;;;12.60;99.90;;;;;;5033588;28;20246;-68
2022/10/02 07:12:55;;;;;;;8.27;2.20;;;12.60;99.90;;;;;;5033069;28;20206;-69
2022/10/02 07:15:52;;;;;;;1.90;1.45;;;12.70;99.90;;;;;;5033640;28;20227;-69
2022/10/02 07:18:31;;;;;;;2.83;1.63;;;12.70;99.90;;;;;;5017324;28;20192;-69
2022/10/02 07:21:06;;;;;;;3.97;1.60;;;12.70;99.90;;;;;;5013687;28;20203;-69
2022/10/02 07:23:43;;;;;;;2.33;1.13;;;12.70;99.90;;;;;;5013777;28;20330;-69
2022/10/02 07:26:32;;;;;;;1.77;1.48;;;12.70;99.90;;;;;;5013833;28;20465;-68
2022/10/02 07:29:12;;;;;;;4.55;1.77;;;12.70;99.90;;;;;;5031305;28;20580;-68
2022/10/02 07:31:51;;;;;;;2.20;1.70;;;12.70;99.90;;;;;;5029366;28;20207;-68
2022/10/02 07:34:32;;;;;;;1.85;1.45;;;12.70;99.90;;;;;;5032261;28;20492;-69
2022/10/02 07:37:07;;;;;;;2.40;1.70;;;12.70;99.90;;;;;;5032711;28;20213;-68
2022/10/02 07:39:51;;;;;;;2.95;1.80;;;12.80;99.90;;;;;;5032876;28;20203;-69
2022/10/02 07:42:34;;;;;;;2.33;1.80;;;12.80;99.90;;;;;;5031957;28;20202;-69
2022/10/02 07:45:20;;;;;;;2.50;1.73;;;12.80;99.90;;;;;;5032639;28;20225;-68
2022/10/02 07:48:10;;;;;;;3.27;1.77;;;12.80;99.90;;;;;;5032579;28;20461;-68
2022/10/02 07:50:49;;;;;;;2.57;1.93;;;12.80;99.90;;;;;;5032289;28;20457;-68
2022/10/02 07:53:23;;;;;;;3.00;1.63;;;12.80;99.90;;;;;;5031604;28;20488;-69
2022/10/02 07:55:53;;;;;;;4.90;1.90;;;12.90;99.90;;;;;;5032358;28;20488;-68
2022/10/02 07:58:30;;;;;;;1.80;1.50;;;12.90;99.90;;;;;;5033056;28;20556;-69
2022/10/02 08:01:01;;;;;;;3.80;1.90;;;13.00;99.90;;;;;;5028939;28;20748;-68
2022/10/02 08:03:33;;;;;;;2.80;2.47;;;13.10;99.90;;;;;;5028019;28;20512;-68
2022/10/02 08:06:00;;;;;;;2.07;1.87;;;13.10;99.90;;;;;;5035519;28;20488;-69
2022/10/02 08:08:30;;;;;;;3.53;2.23;;;13.20;99.90;;;;;;5030472;28;20488;-68
2022/10/02 08:11:03;;;;;;;2.33;2.07;;;13.20;99.90;;;;;;5031153;28;20854;-68
2022/10/02 08:13:33;;;;;;;5.27;2.90;;;13.30;99.90;;;;;;5029815;28;20879;-68
2022/10/02 08:16:04;;;;;;;4.50;2.30;;;13.40;99.90;;;;;;5030628;28;20473;-68
2022/10/02 08:18:35;;;;;;;2.80;2.20;;;13.40;99.90;;;;;;5029252;28;20960;-69
2022/10/02 08:21:03;;;;;;;2.40;2.20;;;13.40;99.90;;;;;;5030397;28;20462;-69
2022/10/02 08:23:37;;;;;;;2.40;2.03;;;13.50;99.90;;;;;;5030350;28;20489;-69
2022/10/02 08:26:11;;;;;;;2.50;2.00;;;13.50;99.90;;;;;;5031041;28;20264;-69
2022/10/02 08:28:45;;;;;;;3.83;2.20;;;13.50;99.90;;;;;;5030465;28;20489;-69
2022/10/02 08:31:14;;;;;;;4.70;2.37;;;13.50;99.90;;;;;;5030120;28;20475;-69
2022/10/02 08:33:42;;;;;;;2.60;2.40;;;13.50;99.90;;;;;;5030870;28;20930;-68
2022/10/02 08:36:28;;;;;;;2.13;1.90;;;13.50;99.90;;;;;;5030849;28;20464;-68
2022/10/02 08:39:00;;;;;;;3.00;2.40;;;13.50;99.90;;;;;;5030288;28;21202;-68
2022/10/02 08:42:03;;;;;;;3.23;2.40;;;13.50;99.90;;;;;;5029746;28;20465;-69
2022/10/02 08:44:52;;;;;;;2.20;2.00;;;13.60;99.90;;;;;;5028064;28;20919;-68
2022/10/02 08:48:04;;;;;;;7.37;2.13;;;13.60;99.90;;;;;;5030139;28;20900;-68
2022/10/02 08:51:27;;;;;;;2.80;1.50;;;13.70;99.90;;;;;;5012761;28;20499;-69
2022/10/02 08:54:41;;;;;;;2.03;1.40;;;13.90;99.90;;;;;;5029249;28;20481;-68
2022/10/02 08:57:33;;;;;;;1.83;1.30;;;14.40;99.90;;;;;;5002556;28;20464;-72
2022/10/02 09:00:13;;;;;;;2.50;1.37;;;14.90;99.90;;;;;;5006839;28;20468;-69
2022/10/02 09:03:18;;;;;;;2.90;1.50;;;15.10;99.90;;;;;;5029022;28;20471;-68
2022/10/02 09:06:36;;;;;;;3.23;1.70;;;15.20;99.90;;;;;;5027546;28;20493;-69
2022/10/02 09:09:48;;;;;;;3.90;1.57;;;15.50;99.90;;;;;;5029149;28;20493;-68
2022/10/02 09:13:06;;;;;;;1.97;1.40;;;15.60;99.90;;;;;;5029402;28;20465;-68
2022/10/02 09:15:46;;;;;;;3.10;1.83;;;15.80;99.90;;;;;;4999920;28;20461;-68
2022/10/02 09:18:30;;;;;;;3.10;1.63;;;16.00;99.90;;;;;;5029938;28;20472;-68
2022/10/02 09:21:15;;;;;;;2.83;1.50;;;16.20;99.90;;;;;;5028797;28;20471;-68
2022/10/02 09:24:16;;;;;;;2.90;1.30;;;16.50;99.90;;;;;;5029470;28;20850;-68
2022/10/02 09:27:27;;;;;;;1.23;1.10;;;16.80;99.90;;;;;;5029058;28;20992;-68
2022/10/02 09:30:27;;;;;;;1.20;1.10;;;17.00;99.90;;;;;;5016929;28;20950;-68
2022/10/02 09:33:21;;;;;;;3.13;1.57;;;17.00;99.90;;;;;;5016202;28;20491;-68
2022/10/02 09:36:35;;;;;;;1.50;1.10;;;16.90;99.90;;;;;;5027680;28;20469;-69
2022/10/02 09:39:28;;;;;;;2.20;1.27;;;16.80;99.90;;;;;;5027717;28;20471;-68
2022/10/02 09:42:23;;;;;;;3.83;1.20;;;16.70;99.90;;;;;;5028776;28;21003;-68
2022/10/02 09:45:27;;;;;;;1.73;1.37;;;16.70;99.90;;;;;;4995437;28;20473;-68
2022/10/02 09:48:29;;;;;;;0.97;0.87;;;16.60;99.90;;;;;;5006809;28;20465;-69
2022/10/02 09:51:35;;;;;;;1.77;0.97;;;16.60;99.90;;;;;;5029048;28;20488;-74
2022/10/02 09:54:36;;;;;;;1.10;1.00;;;16.70;99.90;;;;;;5029637;28;20492;-68
2022/10/02 09:57:40;;;;;;;1.60;1.00;;;16.70;99.90;;;;;;5028343;28;20472;-69
2022/10/02 10:00:20;;;;;;;1.00;0.80;;;16.80;99.90;;;;;;5029257;28;20472;-69
2022/10/02 10:03:22;;;;;;;0.80;0.80;;;16.70;99.90;;;;;;5028138;28;20472;-68
2022/10/02 10:06:18;;;;;;;1.00;0.80;;;16.50;99.90;;;;;;5027600;28;20471;-68
2022/10/02 10:09:24;;;;;;;1.10;0.80;;;16.40;99.90;;;;;;5027826;28;20479;-68
2022/10/02 10:12:22;;;;;;;1.27;0.90;;;16.30;99.90;;;;;;5025884;28;20990;-68
2022/10/02 10:15:30;;;;;;;1.17;0.73;;;16.30;99.90;;;;;;5024738;28;20484;-68
2022/10/02 10:18:40;;;;;;;1.00;0.90;;;16.30;99.90;;;;;;5025394;28;20468;-68
2022/10/02 10:21:27;;;;;;;1.40;0.97;;;16.20;99.90;;;;;;5022855;28;20473;-68
2022/10/02 10:24:20;;;;;;;2.00;1.83;;;16.20;99.90;;;;;;5026768;28;20868;-69
2022/10/02 10:27:16;;;;;;;3.63;2.27;;;16.20;99.90;;;;;;5028369;28;20472;-68
2022/10/02 10:30:09;;;;;;;2.63;2.30;;;16.00;99.90;;;;;;5012312;28;20508;-69
2022/10/02 10:33:17;;;;;;;4.40;2.13;;;15.70;99.90;;;;;;5028134;28;20475;-68
2022/10/02 10:39:34;;;;;;;2.13;1.93;;;15.10;99.90;;;;;;5027513;28;20503;-68
2022/10/02 10:42:22;;;;;;;3.57;2.87;;;15.00;99.90;;;;;;5026938;28;20461;-69
2022/10/02 10:45:17;;;;;;;3.57;1.87;;;14.90;99.90;;;;;;5027702;28;20515;-68
2022/10/02 10:48:05;;;;;;;1.80;1.70;;;14.80;99.90;;;;;;5027590;28;20861;-68
2022/10/02 10:50:59;;;;;;;2.90;2.60;;;14.80;99.90;;;;;;5028390;28;20495;-68
2022/10/02 10:53:51;;;;;;;1.80;1.70;;;14.80;99.90;;;;;;5028108;28;20485;-68
2022/10/02 10:56:43;;;;;;;3.03;2.10;;;14.80;99.90;;;;;;5027692;28;20818;-68
2022/10/02 10:59:42;;;;;;;3.03;2.40;;;14.70;99.90;;;;;;5027641;28;20497;-69
2022/10/02 11:02:53;;;;;;;4.33;3.50;;;14.70;99.90;;;;;;5026690;28;20492;-68
2022/10/02 11:06:02;;;;;;;6.20;2.90;;;14.60;99.90;;;;;;5027299;28;20538;-68
2022/10/02 11:09:05;;;;;;;4.93;2.60;;;14.50;99.90;;;;;;4979094;28;20503;-69
2022/10/02 11:14:42;;;;;;;3.60;2.17;;;14.40;99.90;;;;;;5067260;22;20634;-66
2022/10/02 11:18:04;;;;;;;2.90;2.50;;;14.30;99.90;;;;;;5050829;28;20455;-67
2022/10/02 11:20:50;;;;;;;3.00;2.10;;;14.20;99.90;;;;;;4970432;28;21083;-68
2022/10/02 11:23:37;;;;;;;2.20;2.00;;;14.20;99.90;;;;;;5052048;28;20495;-69
2022/10/02 11:26:21;;;;;;;2.77;2.10;;;14.20;99.90;;;;;;5052221;28;20474;-68
2022/10/02 11:29:11;;;;;;;4.23;2.10;;;14.20;99.90;;;;;;5052464;28;20506;-68
2022/10/02 11:32:08;;;;;;;2.00;1.80;;;14.20;99.90;;;;;;5049787;28;20452;-69
2022/10/02 11:34:55;;;;;;;2.07;1.53;;;14.20;99.90;;;;;;5050268;28;20541;-68
2022/10/02 11:37:38;;;;;;;1.90;1.70;;;14.20;99.90;;;;;;5051943;28;20947;-68
2022/10/02 11:40:33;;;;;;;1.70;1.60;;;14.20;99.90;;;;;;5049924;28;20463;-68
2022/10/02 11:43:29;;;;;;;1.83;1.60;;;14.20;99.90;;;;;;5051441;28;20463;-68
2022/10/02 11:46:21;;;;;;;1.53;1.43;;;14.10;99.90;;;;;;5051208;28;20903;-68
2022/10/02 11:49:06;;;;;;;1.30;1.10;;;14.10;99.90;;;;;;5052352;28;20463;-68
2022/10/02 11:52:07;;;;;;;1.50;1.20;;;14.00;99.90;;;;;;5051738;28;20490;-69
2022/10/02 11:54:53;;;;;;;1.57;1.43;;;14.00;99.90;;;;;;5051855;28;20943;-68
2022/10/02 11:57:38;;;;;;;1.20;1.10;;;14.00;99.90;;;;;;5052445;28;20474;-69
2022/10/02 12:00:30;;;;;;;1.20;1.10;;;13.90;99.90;;;;;;5051125;28;20951;-69
2022/10/02 12:03:03;;;;;;;1.07;0.97;;;13.90;99.90;;;;;;5048959;28;20558;-68
2022/10/02 12:05:52;;;;;;;1.50;1.40;;;13.90;99.90;;;;;;5052002;28;20955;-68
2022/10/02 12:08:29;;;;;;;1.03;0.93;;;13.80;99.90;;;;;;5051020;28;21219;-68
2022/10/02 12:11:02;;;;;;;1.10;1.00;;;13.80;99.90;;;;;;5049524;28;20487;-68
2022/10/02 12:13:47;;;;;;;1.03;0.93;;;13.80;99.90;;;;;;5050762;28;20487;-68
2022/10/02 12:16:26;;;;;;;1.10;1.00;;;13.80;99.90;;;;;;5051442;28;20480;-68
2022/10/02 12:19:03;;;;;;;1.40;1.20;;;13.90;99.90;;;;;;5051037;28;21218;-68
2022/10/02 12:27:29;;;;;;;1.00;0.90;;;13.60;99.90;;;;;;5050464;28;20448;-68
2022/10/02 12:30:06;;;;;;;1.10;0.97;;;13.60;99.90;;;;;;5051091;28;20482;-68
2022/10/02 12:32:56;;;;;;;1.10;1.00;;;13.60;99.90;;;;;;5050303;28;20815;-68
2022/10/02 12:35:36;;;;;;;1.20;1.03;;;13.50;99.90;;;;;;5048009;28;20468;-68
2022/10/02 12:38:21;;;;;;;3.50;3.03;;;13.50;99.90;;;;;;5050820;28;20543;-68
2022/10/02 12:40:59;;;;;;;3.77;3.47;;;13.50;99.90;;;;;;5051161;28;20452;-68
2022/10/02 12:43:58;;;;;;;2.30;2.10;;;13.50;99.90;;;;;;5050747;28;20506;-68
2022/10/02 12:46:46;;;;;;;1.80;1.70;;;13.50;99.90;;;;;;5049138;28;20467;-68
2022/10/02 12:49:28;;;;;;;1.40;1.20;;;13.50;99.90;;;;;;5042869;28;21121;-68
2022/10/02 12:52:27;;;;;;;1.30;1.20;;;13.50;99.90;;;;;;5041405;28;20834;-68
2022/10/02 12:55:21;;;;;;;2.00;1.80;;;13.50;99.90;;;;;;5047255;28;20483;-68
2022/10/02 12:57:59;;;;;;;1.37;1.27;;;13.50;99.90;;;;;;5050834;28;20456;-68
2022/10/02 13:00:42;;;;;;;1.30;1.07;;;13.50;99.90;;;;;;5051176;28;20459;-68
2022/10/02 13:03:48;;;;;;;1.10;0.90;;;13.50;99.90;;;;;;5049838;28;20459;-68
2022/10/02 13:06:52;;;;;;;0.90;0.80;;;13.50;99.90;;;;;;5050347;28;20464;-68
2022/10/02 13:09:29;;;;;;;0.90;0.80;;;13.40;99.90;;;;;;5051085;28;20846;-68
2022/10/02 13:12:12;;;;;;;1.37;1.10;;;13.40;99.90;;;;;;5049402;28;20829;-68
2022/10/02 13:15:17;;;;;;;1.20;1.10;;;13.30;99.90;;;;;;5050839;28;20483;-68
2022/10/02 13:17:52;;;;;;;1.40;1.30;;;13.30;99.90;;;;;;5050657;28;20955;-68
2022/10/02 13:20:28;;;;;;;1.77;1.67;;;13.30;99.90;;;;;;5047395;28;20999;-67
2022/10/02 13:23:03;;;;;;;1.40;1.30;;;13.40;99.90;;;;;;5047587;28;20460;-68
2022/10/02 13:25:38;;;;;;;1.33;1.00;;;13.40;99.90;;;;;;5049841;28;20490;-68
2022/10/02 13:28:19;;;;;;;1.67;1.00;;;13.40;99.90;;;;;;5049869;28;20464;-68
2022/10/02 13:30:56;;;;;;;1.40;1.20;;;13.40;99.90;;;;;;5046153;28;20503;-67
2022/10/02 13:33:50;;;;;;;1.20;1.10;;;13.40;99.90;;;;;;5048819;28;20484;-68
2022/10/02 13:36:22;;;;;;;1.00;0.70;;;13.40;99.90;;;;;;5049415;28;20714;-67
2022/10/02 13:39:02;;;;;;;1.00;0.90;;;13.40;99.90;;;;;;5049917;28;20845;-68
2022/10/02 13:41:44;;;;;;;1.17;0.83;;;13.40;99.90;;;;;;5048884;28;20522;-68
2022/10/02 13:44:22;;;;;;;0.80;0.80;;;13.50;99.90;;;;;;5049359;28;20510;-68
2022/10/02 13:47:22;;;;;;;1.00;0.80;;;13.60;99.90;;;;;;5049940;28;20460;-68
2022/10/02 13:50:12;;;;;;;0.97;0.90;;;13.70;99.90;;;;;;5049309;28;20468;-68
2022/10/02 13:52:51;;;;;;;0.87;0.73;;;13.80;99.90;;;;;;5047270;28;20475;-67
2022/10/02 13:55:24;;;;;;;0.70;0.60;;;13.70;99.90;;;;;;5049306;28;20484;-68
2022/10/02 13:58:06;;;;;;;1.00;0.90;;;13.70;99.90;;;;;;5049800;28;20817;-67
2022/10/02 14:01:14;;;;;;;1.00;0.90;;;13.70;99.90;;;;;;5048060;28;20498;-68
2022/10/02 14:03:59;;;;;;;1.97;1.80;;;13.80;99.90;;;;;;5047897;28;20563;-67
2022/10/02 14:06:31;;;;;;;1.63;1.43;;;13.90;99.90;;;;;;5049307;28;20467;-67
2022/10/02 14:09:24;;;;;;;1.93;1.47;;;14.00;99.90;;;;;;5049042;28;20842;-67
2022/10/02 14:12:10;;;;;;;1.63;1.20;;;14.00;99.90;;;;;;5047597;28;20495;-67
2022/10/02 14:14:56;;;;;;;1.27;1.00;;;14.00;99.90;;;;;;5111685;22;21037;-67
2022/10/02 14:17:34;;;;;;;1.37;1.03;;;13.90;99.90;;;;;;5038248;28;20729;-67
2022/10/02 14:20:16;;;;;;;1.30;1.20;;;13.90;99.90;;;;;;5038755;28;20522;-68